createdAt,value
2023-01-07T00:01:19.971Z,6.88
2023-01-07T00:03:48.968Z,6.81
2023-01-07T00:06:21.673Z,6.81
2023-01-07T00:08:51.288Z,6.84
2023-01-07T00:11:24.180Z,6.89
2023-01-07T00:13:53.525Z,6.89
2023-01-07T00:16:23.288Z,6.89
2023-01-07T00:18:52.618Z,6.96
2023-01-07T00:21:21.907Z,6.97
2023-01-07T00:23:53.337Z,6.96
2023-01-07T00:26:22.585Z,6.96
2023-01-07T00:28:51.690Z,6.98
2023-01-07T00:31:24.658Z,6.95
2023-01-07T00:33:59.437Z,6.89
2023-01-07T00:36:29.503Z,6.86
2023-01-07T00:39:03.932Z,6.83
2023-01-07T00:41:31.828Z,6.83
2023-01-07T00:43:59.625Z,6.81
2023-01-07T00:46:28.065Z,6.82
2023-01-07T00:48:55.771Z,6.87
2023-01-07T00:51:23.443Z,6.89
2023-01-07T00:53:50.915Z,6.90
2023-01-07T00:56:19.261Z,6.99
2023-01-07T00:58:47.091Z,7.02
2023-01-07T01:01:15.925Z,7.06
2023-01-07T01:03:43.671Z,7.08
2023-01-07T01:06:16.065Z,7.08
2023-01-07T01:08:45.532Z,7.09
2023-01-07T01:11:15.169Z,7.16
2023-01-07T01:13:44.184Z,7.16
2023-01-07T01:16:14.902Z,7.18
2023-01-07T01:18:43.345Z,7.17
2023-01-07T01:21:15.345Z,7.23
2023-01-07T01:23:43.824Z,7.25
2023-01-07T01:26:14.731Z,7.27
2023-01-07T01:28:43.721Z,7.25
2023-01-07T01:31:13.061Z,7.22
2023-01-07T01:33:55.989Z,7.24
2023-01-07T01:36:24.951Z,7.27
2023-01-07T01:38:55.078Z,7.24
2023-01-07T01:41:22.703Z,7.25
2023-01-07T01:43:53.299Z,7.31
2023-01-07T01:46:39.988Z,7.28
2023-01-07T01:49:27.957Z,7.28
2023-01-07T01:52:11.838Z,7.19
2023-01-07T01:54:44.249Z,7.24
2023-01-07T01:57:12.005Z,7.24
2023-01-07T01:59:44.528Z,7.25
2023-01-07T02:02:16.537Z,7.23
2023-01-07T02:04:44.394Z,7.23
2023-01-07T02:07:17.580Z,7.25
2023-01-07T02:10:05.971Z,7.22
2023-01-07T02:12:39.641Z,7.24
2023-01-07T02:15:15.262Z,7.17
2023-01-07T02:18:11.221Z,7.15
2023-01-07T02:21:03.330Z,7.11
2023-01-07T02:24:01.789Z,7.17
2023-01-07T02:27:11.259Z,7.22
2023-01-07T02:29:45.493Z,7.25
2023-01-07T02:32:52.816Z,7.17
2023-01-07T02:35:41.308Z,7.17
2023-01-07T02:38:11.882Z,7.17
2023-01-07T02:41:23.008Z,7.17
2023-01-07T02:44:04.119Z,7.16
2023-01-07T02:46:47.578Z,7.12
2023-01-07T02:49:17.345Z,7.08
2023-01-07T02:51:47.286Z,7.07
2023-01-07T02:54:23.470Z,6.95
2023-01-07T02:57:02.166Z,6.99
2023-01-07T02:59:38.476Z,6.94
2023-01-07T03:02:11.813Z,6.88
2023-01-07T03:05:10.062Z,6.76
2023-01-07T03:08:01.032Z,6.71
2023-01-07T03:10:50.032Z,6.65
2023-01-07T03:13:23.937Z,6.61
2023-01-07T03:15:53.368Z,6.60
2023-01-07T03:18:27.072Z,6.50
2023-01-07T03:21:06.147Z,6.48
2023-01-07T03:23:39.139Z,6.47
2023-01-07T03:26:09.052Z,6.46
2023-01-07T03:28:41.703Z,6.37
2023-01-07T03:31:13.990Z,6.36
2023-01-07T03:33:57.176Z,6.37
2023-01-07T03:36:30.481Z,6.32
2023-01-07T03:38:59.999Z,6.29
2023-01-07T03:41:46.821Z,6.23
2023-01-07T03:44:15.177Z,6.16
2023-01-07T03:46:44.109Z,6.13
2023-01-07T03:49:11.961Z,6.11
2023-01-07T03:51:39.756Z,6.11
2023-01-07T03:54:08.641Z,6.02
2023-01-07T03:56:36.597Z,5.96
2023-01-07T03:59:04.323Z,5.94
2023-01-07T04:01:32.072Z,5.94
2023-01-07T04:04:02.338Z,5.93
2023-01-07T04:06:31.084Z,5.88
2023-01-07T04:08:59.198Z,5.92
2023-01-07T04:11:27.122Z,5.96
2023-01-07T04:13:55.209Z,6.00
2023-01-07T04:16:22.978Z,6.00
2023-01-07T04:18:50.493Z,6.06
2023-01-07T04:21:18.301Z,6.09
2023-01-07T04:23:45.753Z,6.16
2023-01-07T04:26:13.500Z,6.14
2023-01-07T04:28:43.256Z,6.13
2023-01-07T04:31:10.933Z,6.11
2023-01-07T04:33:38.858Z,6.08
2023-01-07T04:36:06.990Z,6.03
2023-01-07T04:38:34.528Z,6.01
2023-01-07T04:41:02.188Z,5.97
2023-01-07T04:43:29.608Z,5.96
2023-01-07T04:45:57.194Z,5.91
2023-01-07T04:48:24.932Z,5.91
2023-01-07T04:50:54.793Z,5.84
2023-01-07T04:53:23.141Z,5.85
2023-01-07T04:55:50.959Z,5.82
2023-01-07T04:58:19.071Z,5.83
2023-01-07T05:00:49.078Z,5.88
2023-01-07T05:03:17.495Z,5.87
2023-01-07T05:05:45.812Z,5.83
2023-01-07T05:08:13.558Z,5.74
2023-01-07T05:10:41.132Z,5.71
2023-01-07T05:13:15.063Z,5.67
2023-01-07T05:15:46.179Z,5.68
2023-01-07T05:18:15.118Z,5.67
2023-01-07T05:20:43.688Z,5.68
2023-01-07T05:23:11.584Z,5.68
2023-01-07T05:25:40.682Z,5.64
2023-01-07T05:28:08.169Z,5.56
2023-01-07T05:30:39.644Z,5.54
2023-01-07T05:33:07.660Z,5.54
2023-01-07T05:39:48.577Z,5.58
2023-01-07T05:42:19.556Z,5.70
2023-01-07T05:44:47.224Z,5.78
2023-01-07T05:47:14.641Z,5.84
2023-01-07T05:49:42.179Z,5.92
2023-01-07T05:52:09.620Z,6.01
2023-01-07T05:54:37.198Z,6.00
2023-01-07T05:57:04.670Z,5.98
2023-01-07T05:59:34.910Z,5.94
2023-01-07T06:02:02.811Z,5.78
2023-01-07T06:04:30.614Z,5.71
2023-01-07T06:06:58.217Z,5.72
2023-01-07T06:09:25.686Z,5.62
2023-01-07T06:11:53.441Z,5.66
2023-01-07T06:14:20.868Z,5.65
2023-01-07T06:16:48.489Z,5.66
2023-01-07T06:19:15.951Z,5.69
2023-01-07T06:21:43.464Z,5.71
2023-01-07T06:24:11.404Z,5.74
2023-01-07T06:26:38.963Z,5.76
2023-01-07T06:29:06.460Z,5.79
2023-01-07T06:31:34.114Z,5.76
2023-01-07T06:34:01.683Z,5.77
2023-01-07T06:36:29.217Z,5.84
2023-01-07T06:38:56.687Z,5.82
2023-01-07T06:41:24.232Z,5.81
2023-01-07T06:43:51.711Z,5.80
2023-01-07T06:46:19.437Z,5.77
2023-01-07T06:48:48.072Z,5.74
2023-01-07T06:51:15.846Z,5.73
2023-01-07T06:53:43.311Z,5.71
2023-01-07T06:56:10.821Z,5.68
2023-01-07T06:58:38.383Z,5.71
2023-01-07T07:01:07.543Z,5.71
2023-01-07T07:03:35.181Z,5.76
2023-01-07T07:06:02.833Z,5.79
2023-01-07T07:08:30.356Z,5.80
2023-01-07T07:10:57.923Z,5.82
2023-01-07T07:13:25.500Z,5.81
2023-01-07T07:15:53.083Z,5.79
2023-01-07T07:18:20.733Z,5.78
2023-01-07T07:20:49.029Z,5.88
2023-01-07T07:23:16.573Z,6.01
2023-01-07T07:25:44.150Z,6.31
2023-01-07T07:28:11.660Z,6.50
2023-01-07T07:30:51.109Z,6.63
2023-01-07T07:33:19.668Z,6.75
2023-01-07T07:35:48.011Z,6.75
2023-01-07T07:38:17.991Z,6.66
2023-01-07T07:40:46.769Z,6.58
2023-01-07T07:43:15.437Z,6.54
2023-01-07T07:45:43.454Z,6.51
2023-01-07T07:48:13.436Z,6.49
2023-01-07T07:50:41.318Z,6.50
2023-01-07T07:53:10.525Z,6.50
2023-01-07T07:55:39.591Z,6.47
2023-01-07T07:58:07.367Z,6.47
2023-01-07T08:00:34.998Z,6.46
2023-01-07T08:03:02.697Z,6.54
2023-01-07T08:05:30.927Z,6.60
2023-01-07T08:07:58.795Z,6.64
2023-01-07T08:10:28.119Z,6.66
2023-01-07T08:12:55.618Z,6.68
2023-01-07T08:15:23.159Z,6.69
2023-01-07T08:17:58.330Z,6.72
2023-01-07T08:20:25.929Z,6.77
2023-01-07T08:22:53.720Z,6.85
2023-01-07T08:25:21.224Z,6.96
2023-01-07T08:27:48.662Z,6.99
2023-01-07T08:30:17.187Z,7.00
2023-01-07T08:32:44.687Z,7.20
2023-01-07T08:35:12.217Z,7.40
2023-01-07T08:37:39.708Z,7.55
2023-01-07T08:40:07.667Z,7.66
2023-01-07T08:42:35.199Z,7.73
2023-01-07T08:45:02.992Z,7.82
2023-01-07T08:47:30.938Z,7.90
2023-01-07T08:49:58.519Z,7.96
2023-01-07T08:52:26.468Z,7.99
2023-01-07T08:54:53.999Z,8.01
2023-01-07T08:57:21.453Z,8.04
2023-01-07T08:59:49.059Z,7.93
2023-01-07T09:02:20.973Z,7.80
2023-01-07T09:04:48.705Z,7.74
2023-01-07T09:07:16.164Z,7.71
2023-01-07T09:09:43.775Z,7.65
2023-01-07T09:12:11.378Z,7.72
2023-01-07T09:14:38.969Z,7.80
2023-01-07T09:17:06.459Z,7.88
2023-01-07T09:19:33.994Z,7.98
2023-01-07T09:22:01.522Z,8.18
2023-01-07T09:24:29.009Z,8.30
2023-01-07T09:26:56.510Z,8.45
2023-01-07T09:29:24.088Z,8.63
2023-01-07T09:31:51.623Z,8.71
2023-01-07T09:34:19.342Z,8.74
2023-01-07T09:36:46.765Z,8.88
2023-01-07T09:39:14.526Z,8.96
2023-01-07T09:42:09.253Z,8.98
2023-01-07T09:45:10.462Z,9.15
2023-01-07T09:47:42.392Z,9.38
2023-01-07T09:50:32.754Z,9.51
2023-01-07T09:53:06.255Z,9.59
2023-01-07T09:55:38.899Z,9.76
2023-01-07T09:58:29.593Z,9.85
2023-01-07T10:01:05.781Z,9.91
2023-01-07T10:03:43.881Z,9.77
2023-01-07T10:06:43.589Z,9.94
2023-01-07T10:09:23.744Z,9.99
2023-01-07T10:12:00.571Z,9.92
2023-01-07T10:15:05.407Z,9.92
2023-01-07T10:18:02.310Z,9.93
2023-01-07T10:20:38.819Z,9.97
2023-01-07T10:23:32.089Z,10.08
2023-01-07T10:26:02.508Z,10.00
2023-01-07T10:28:45.430Z,9.70
2023-01-07T10:31:22.697Z,9.64
2023-01-07T10:33:52.334Z,9.67
2023-01-07T10:36:38.527Z,9.35
2023-01-07T10:39:41.339Z,9.15
2023-01-07T10:42:27.494Z,8.92
2023-01-07T10:44:57.904Z,8.85
2023-01-07T10:47:50.681Z,8.86
2023-01-07T10:50:52.341Z,8.94
2023-01-07T10:53:19.883Z,9.00
2023-01-07T10:56:26.487Z,9.00
2023-01-07T10:58:54.033Z,8.93
2023-01-07T11:01:30.091Z,8.87
2023-01-07T11:04:00.085Z,8.78
2023-01-07T11:06:55.807Z,8.64
2023-01-07T11:09:41.415Z,8.62
2023-01-07T11:13:06.389Z,8.61
2023-01-07T11:15:40.005Z,8.65
2023-01-07T11:18:16.577Z,8.81
2023-01-07T11:20:53.219Z,8.97
2023-01-07T11:23:30.257Z,9.16
2023-01-07T11:26:25.011Z,9.33
2023-01-07T11:28:58.067Z,9.54
2023-01-07T11:31:52.409Z,9.50
2023-01-07T11:34:26.819Z,9.40
2023-01-07T11:36:54.973Z,9.40
2023-01-07T11:39:26.162Z,9.59
2023-01-07T11:41:59.402Z,9.67
2023-01-07T11:44:27.591Z,9.76
2023-01-07T11:46:55.560Z,9.84
2023-01-07T11:49:29.496Z,9.90
2023-01-07T11:51:57.132Z,9.86
2023-01-07T11:54:29.585Z,9.91
2023-01-07T11:57:21.032Z,9.88
2023-01-07T11:59:48.694Z,9.85
2023-01-07T12:02:25.691Z,9.75
2023-01-07T12:05:17.010Z,9.69
2023-01-07T12:07:51.589Z,9.66
2023-01-07T12:10:29.271Z,9.56
2023-01-07T12:12:58.782Z,9.64
2023-01-07T12:15:30.594Z,9.64
2023-01-07T12:18:07.342Z,9.60
2023-01-07T12:20:56.741Z,9.62
2023-01-07T12:24:01.692Z,9.85
2023-01-07T12:26:55.378Z,10.02
2023-01-07T12:29:51.693Z,10.13
2023-01-07T12:32:40.219Z,10.04
2023-01-07T12:35:33.966Z,9.95
2023-01-07T12:38:23.145Z,9.95
2023-01-07T12:41:00.568Z,9.88
2023-01-07T12:43:40.156Z,9.98
2023-01-07T12:46:12.319Z,9.89
2023-01-07T12:48:58.342Z,9.86
2023-01-07T12:51:34.192Z,9.76
2023-01-07T12:54:24.717Z,9.65
2023-01-07T12:56:58.721Z,9.60
2023-01-07T12:59:46.693Z,9.48
2023-01-07T13:02:35.390Z,9.51
2023-01-07T13:05:21.772Z,9.43
2023-01-07T13:07:58.461Z,9.39
2023-01-07T13:10:35.810Z,9.36
2023-01-07T13:13:12.909Z,9.34
2023-01-07T13:15:41.826Z,9.35
2023-01-07T13:18:12.388Z,9.42
2023-01-07T13:20:52.142Z,9.41
2023-01-07T13:23:25.816Z,9.39
2023-01-07T13:26:06.700Z,9.32
2023-01-07T13:29:01.758Z,9.25
2023-01-07T13:32:06.710Z,9.19
2023-01-07T13:35:00.422Z,9.08
2023-01-07T13:37:52.837Z,9.16
2023-01-07T13:40:49.481Z,9.04
2023-01-07T13:43:53.988Z,8.89
2023-01-07T13:46:35.386Z,8.97
2023-01-07T13:49:03.579Z,8.92
2023-01-07T13:51:38.000Z,8.86
2023-01-07T13:54:05.663Z,8.85
2023-01-07T13:56:36.018Z,8.84
2023-01-07T13:59:04.058Z,8.80
2023-01-07T14:02:29.820Z,8.76
2023-01-07T14:05:15.034Z,8.72
2023-01-07T14:07:54.029Z,8.59
2023-01-07T14:10:34.979Z,8.39
2023-01-07T14:13:05.474Z,8.21
2023-01-07T14:15:57.677Z,8.15
2023-01-07T14:18:33.780Z,8.06
2023-01-07T14:21:40.137Z,7.95
2023-01-07T14:24:29.229Z,7.90
2023-01-07T14:27:07.652Z,7.86
2023-01-07T14:29:47.094Z,7.81
2023-01-07T14:32:37.597Z,7.74
2023-01-07T14:35:19.282Z,7.62
2023-01-07T14:37:47.280Z,7.63
2023-01-07T14:40:35.212Z,7.74
2023-01-07T14:43:04.085Z,7.63
2023-01-07T14:45:37.783Z,7.52
2023-01-07T14:48:08.107Z,7.32
2023-01-07T14:50:55.544Z,7.12
2023-01-07T14:53:43.211Z,6.98
2023-01-07T14:56:38.442Z,7.04
2023-01-07T14:59:08.627Z,6.94
2023-01-07T15:01:51.502Z,6.79
2023-01-07T15:04:32.669Z,6.83
2023-01-07T15:07:02.327Z,6.76
2023-01-07T15:10:05.090Z,6.77
2023-01-07T15:13:14.479Z,6.72
2023-01-07T15:16:01.896Z,6.62
2023-01-07T15:18:31.570Z,6.70
2023-01-07T15:21:19.289Z,6.78
2023-01-07T15:23:56.174Z,6.72
2023-01-07T15:26:29.696Z,6.70
2023-01-07T15:29:15.407Z,6.72
2023-01-07T15:31:51.868Z,6.65
2023-01-07T15:34:21.088Z,6.67
2023-01-07T15:36:51.561Z,6.50
2023-01-07T15:39:22.103Z,6.45
2023-01-07T15:41:54.725Z,6.49
2023-01-07T15:44:26.778Z,6.40
2023-01-07T15:46:55.477Z,6.47
2023-01-07T15:49:28.141Z,6.51
2023-01-07T15:51:58.565Z,6.46
2023-01-07T15:54:37.684Z,6.62
2023-01-07T15:57:16.663Z,6.68
2023-01-07T15:59:48.008Z,6.52
2023-01-07T16:02:28.013Z,6.41
2023-01-07T16:04:59.171Z,6.48
2023-01-07T16:07:29.731Z,6.53
2023-01-07T16:09:58.716Z,6.45
2023-01-07T16:12:35.877Z,6.29
2023-01-07T16:15:23.310Z,6.28
2023-01-07T16:18:14.880Z,6.29
2023-01-07T16:20:49.418Z,6.34
2023-01-07T16:23:31.466Z,6.37
2023-01-07T16:26:03.633Z,6.32
2023-01-07T16:28:39.890Z,6.39
2023-01-07T16:31:13.707Z,6.29
2023-01-07T16:33:42.471Z,6.25
2023-01-07T16:36:31.340Z,6.31
2023-01-07T16:39:04.538Z,6.46
2023-01-07T16:41:32.585Z,6.54
2023-01-07T16:44:00.632Z,6.50
2023-01-07T16:46:39.016Z,6.44
2023-01-07T16:49:09.683Z,6.45
2023-01-07T16:52:14.279Z,6.41
2023-01-07T16:54:46.350Z,6.42
2023-01-07T16:57:14.547Z,6.38
2023-01-07T16:59:55.529Z,6.42
2023-01-07T17:03:00.833Z,6.44
2023-01-07T17:05:31.230Z,6.46
2023-01-07T17:08:05.827Z,6.55
2023-01-07T17:10:40.767Z,6.49
2023-01-07T17:13:35.615Z,6.45
2023-01-07T17:16:23.327Z,6.65
2023-01-07T17:18:51.838Z,6.62
2023-01-07T17:21:41.574Z,6.57
2023-01-07T17:24:23.532Z,6.45
2023-01-07T17:26:51.680Z,6.35
2023-01-07T17:29:19.960Z,6.29
2023-01-07T17:31:47.772Z,6.26
2023-01-07T17:34:16.181Z,6.28
2023-01-07T17:36:44.055Z,6.24
2023-01-07T17:39:12.000Z,6.19
2023-01-07T17:41:57.941Z,6.24
2023-01-07T17:44:25.828Z,6.25
2023-01-07T17:46:53.323Z,6.21
2023-01-07T17:49:20.980Z,6.25
2023-01-07T17:51:49.519Z,6.27
2023-01-07T17:54:25.674Z,6.50
2023-01-07T17:56:53.283Z,6.48
2023-01-07T17:59:23.465Z,6.44
2023-01-07T18:01:53.352Z,6.38
2023-01-07T18:04:21.655Z,6.31
2023-01-07T18:06:49.244Z,6.27
2023-01-07T18:09:16.831Z,6.25
2023-01-07T18:12:05.191Z,6.53
2023-01-07T18:14:33.320Z,6.42
2023-01-07T18:17:00.945Z,6.42
2023-01-07T18:19:28.517Z,6.42
2023-01-07T18:21:56.238Z,6.37
2023-01-07T18:24:24.170Z,6.31
2023-01-07T18:26:51.570Z,6.25
2023-01-07T18:29:19.355Z,6.27
2023-01-07T18:31:46.909Z,6.37
2023-01-07T18:34:15.334Z,6.51
2023-01-07T18:36:42.990Z,6.56
2023-01-07T18:39:19.220Z,6.55
2023-01-07T18:41:50.898Z,6.44
2023-01-07T18:44:19.441Z,6.48
2023-01-07T18:46:47.576Z,6.26
2023-01-07T18:49:15.213Z,6.19
2023-01-07T18:51:43.183Z,6.25
2023-01-07T18:54:10.788Z,6.20
2023-01-07T18:56:38.396Z,6.19
2023-01-07T18:59:06.079Z,6.28
2023-01-07T19:01:33.787Z,6.27
2023-01-07T19:04:01.503Z,6.30
2023-01-07T19:06:29.080Z,6.30
2023-01-07T19:08:57.027Z,6.31
2023-01-07T19:11:24.549Z,6.29
2023-01-07T19:13:52.087Z,6.36
2023-01-07T19:16:19.673Z,6.34
2023-01-07T19:18:47.310Z,6.31
2023-01-07T19:21:14.826Z,6.29
2023-01-07T19:23:42.418Z,6.27
2023-01-07T19:26:12.218Z,6.23
2023-01-07T19:28:39.839Z,6.25
2023-01-07T19:31:08.155Z,6.20
2023-01-07T19:33:36.804Z,6.20
2023-01-07T19:36:10.782Z,6.10
2023-01-07T19:38:40.264Z,6.11
2023-01-07T19:41:13.166Z,6.08
2023-01-07T19:43:40.790Z,6.06
2023-01-07T19:46:09.980Z,6.02
2023-01-07T19:48:37.817Z,6.03
2023-01-07T19:51:06.684Z,6.00
2023-01-07T19:53:35.622Z,5.96
2023-01-07T19:56:05.917Z,5.90
2023-01-07T19:58:35.356Z,5.88
2023-01-07T20:01:08.787Z,5.80
2023-01-07T20:03:37.319Z,5.75
2023-01-07T20:06:06.697Z,5.72
2023-01-07T20:08:34.609Z,5.65
2023-01-07T20:11:02.331Z,5.64
2023-01-07T20:13:33.891Z,5.60
2023-01-07T20:16:09.662Z,5.59
2023-01-07T20:18:39.108Z,5.57
2023-01-07T20:21:07.366Z,5.55
2023-01-07T20:23:36.438Z,5.47
2023-01-07T20:26:07.408Z,5.38
2023-01-07T20:28:35.714Z,5.31
2023-01-07T20:31:09.737Z,5.21
2023-01-07T20:33:37.727Z,5.25
2023-01-07T20:36:08.572Z,5.32
2023-01-07T20:38:36.850Z,5.24
2023-01-07T20:41:05.896Z,5.19
2023-01-07T20:43:35.557Z,5.13
2023-01-07T20:46:06.006Z,5.05
2023-01-07T20:48:34.559Z,5.15
2023-01-07T20:51:09.461Z,5.07
2023-01-07T20:53:37.706Z,4.97
2023-01-07T20:56:06.142Z,4.91
2023-01-07T20:58:35.541Z,4.84
2023-01-07T21:01:05.623Z,4.81
2023-01-07T21:03:35.259Z,4.79
2023-01-07T21:06:02.918Z,4.76
2023-01-07T21:08:30.463Z,4.77
2023-01-07T21:10:58.076Z,4.79
2023-01-07T21:13:25.998Z,4.85
2023-01-07T21:15:54.390Z,4.76
2023-01-07T21:18:21.874Z,4.66
2023-01-07T21:20:49.443Z,4.53
2023-01-07T21:23:16.951Z,4.60
2023-01-07T21:25:48.336Z,4.69
2023-01-07T21:28:15.990Z,4.76
2023-01-07T21:30:43.607Z,4.69
2023-01-07T21:33:11.295Z,4.70
2023-01-07T21:35:42.241Z,4.68
2023-01-07T21:38:09.973Z,4.65
2023-01-07T21:40:39.521Z,4.65
2023-01-07T21:43:07.060Z,4.59
2023-01-07T21:45:34.591Z,4.64
2023-01-07T21:48:02.367Z,4.68
2023-01-07T21:50:29.952Z,4.68
2023-01-07T21:52:57.765Z,4.63
2023-01-07T21:55:25.217Z,4.64
2023-01-07T21:57:52.786Z,4.61
2023-01-07T22:00:20.475Z,4.57
2023-01-07T22:02:48.060Z,4.60
2023-01-07T22:05:15.612Z,4.58
2023-01-07T22:07:43.185Z,4.60
2023-01-07T22:10:10.854Z,4.61
2023-01-07T22:12:38.584Z,4.63
2023-01-07T22:15:06.444Z,4.61
2023-01-07T22:17:34.014Z,4.67
2023-01-07T22:20:01.940Z,4.65
2023-01-07T22:22:29.493Z,4.68
2023-01-07T22:24:56.944Z,4.67
2023-01-07T22:27:24.541Z,4.66
2023-01-07T22:29:51.998Z,4.76
2023-01-07T22:32:19.654Z,4.82
2023-01-07T22:34:47.106Z,4.88
2023-01-07T22:37:19.227Z,4.89
2023-01-07T22:39:54.084Z,4.91
2023-01-07T22:42:29.235Z,4.92
2023-01-07T22:45:02.820Z,4.84
2023-01-07T22:47:36.062Z,4.78
2023-01-07T22:50:06.458Z,4.73
2023-01-07T22:52:35.701Z,4.74
2023-01-07T22:55:04.132Z,4.79
2023-01-07T22:57:32.194Z,4.82
2023-01-07T23:00:00.725Z,4.76
2023-01-07T23:02:28.655Z,4.73
2023-01-07T23:04:56.117Z,4.70
2023-01-07T23:07:23.705Z,4.66
2023-01-07T23:09:51.719Z,4.62
2023-01-07T23:12:19.303Z,4.58
2023-01-07T23:14:46.745Z,4.54
2023-01-07T23:17:14.545Z,4.50
2023-01-07T23:19:41.958Z,4.54
2023-01-07T23:22:09.505Z,4.53
2023-01-07T23:24:37.455Z,4.47
2023-01-07T23:27:05.258Z,4.45
2023-01-07T23:29:32.756Z,4.51
2023-01-07T23:32:00.341Z,4.51
2023-01-07T23:34:27.831Z,4.52
2023-01-07T23:36:55.335Z,4.54
2023-01-07T23:39:23.156Z,4.63
2023-01-07T23:41:50.715Z,4.79
2023-01-07T23:44:18.167Z,4.83
2023-01-07T23:46:45.877Z,4.87
2023-01-07T23:49:13.320Z,4.92
2023-01-07T23:51:41.586Z,4.99
2023-01-07T23:54:09.918Z,5.04
2023-01-07T23:56:37.515Z,5.02
2023-01-07T23:59:04.999Z,4.99
